createdAt,value
2024-04-08T13:26:33.306Z,2.70
2024-04-08T13:29:01.508Z,2.27
2024-04-08T13:31:28.368Z,2.17
2024-04-08T13:33:56.517Z,1.93
2024-04-08T13:36:23.494Z,2.07
2024-04-08T13:38:50.639Z,2.60
2024-04-08T13:41:17.650Z,1.60
2024-04-08T13:43:45.733Z,2.30
2024-04-08T13:46:13.065Z,2.37
2024-04-08T13:48:40.007Z,1.63
2024-04-08T13:51:06.936Z,2.70
2024-04-08T13:53:33.788Z,2.40
2024-04-08T13:56:01.720Z,1.97
2024-04-08T13:58:29.046Z,2.80
2024-04-08T14:00:56.324Z,3.23
2024-04-08T14:03:26.548Z,3.43
2024-04-08T14:05:53.528Z,2.53
2024-04-08T14:08:20.417Z,2.27
2024-04-08T14:10:47.445Z,2.57
2024-04-08T14:13:14.814Z,2.50
2024-04-08T14:15:42.579Z,4.37
2024-04-08T14:18:10.327Z,3.37
2024-04-08T14:20:37.568Z,3.17
2024-04-08T14:23:05.927Z,3.10
2024-04-08T14:25:35.772Z,2.60
2024-04-08T14:28:03.394Z,3.07
2024-04-08T14:30:30.594Z,2.23
2024-04-08T14:32:57.846Z,3.20
2024-04-08T14:35:25.230Z,2.60
2024-04-08T14:38:13.908Z,2.03
2024-04-08T14:40:40.127Z,2.37
2024-04-08T14:43:12.837Z,2.33
2024-04-08T14:45:45.555Z,2.30
2024-04-08T14:48:13.754Z,2.57
2024-04-08T14:50:40.665Z,2.83
2024-04-08T14:53:08.290Z,2.23
2024-04-08T14:55:39.376Z,2.53
2024-04-08T14:58:17.026Z,3.03
2024-04-08T15:00:50.968Z,2.37
2024-04-08T15:03:27.224Z,2.43
2024-04-08T15:06:00.885Z,3.30
2024-04-08T15:08:32.531Z,2.27
2024-04-08T15:11:04.496Z,2.33
2024-04-08T15:13:32.071Z,2.37
2024-04-08T15:15:58.912Z,2.37
2024-04-08T15:18:26.756Z,2.17
2024-04-08T15:20:54.052Z,2.93
2024-04-08T15:23:21.466Z,3.50
2024-04-08T15:25:48.526Z,3.00
2024-04-08T15:28:15.422Z,2.20
2024-04-08T15:30:43.047Z,1.90
2024-04-08T15:33:10.378Z,2.70
2024-04-08T15:35:37.374Z,2.60
2024-04-08T15:38:04.421Z,2.80
2024-04-08T15:40:31.468Z,3.00
2024-04-08T15:42:58.285Z,2.30
2024-04-08T15:45:25.270Z,3.33
2024-04-08T15:47:52.380Z,3.60
2024-04-08T15:50:19.869Z,2.60
2024-04-08T15:52:46.691Z,2.87
2024-04-08T15:55:13.771Z,3.07
2024-04-08T15:57:40.632Z,2.90
2024-04-08T16:00:10.655Z,3.13
2024-04-08T16:02:38.190Z,2.33
2024-04-08T16:05:05.577Z,2.73
2024-04-08T16:07:32.588Z,2.60
2024-04-08T16:09:59.441Z,3.20
2024-04-08T16:12:29.787Z,3.70
2024-04-08T16:14:57.697Z,3.57
2024-04-08T16:17:24.516Z,3.23
2024-04-08T16:19:51.513Z,3.30
2024-04-08T16:22:19.341Z,3.50
2024-04-08T16:24:47.917Z,3.20
2024-04-08T16:27:15.008Z,3.10
2024-04-08T16:29:42.067Z,3.67
2024-04-08T16:32:09.042Z,3.40
2024-04-08T16:34:36.382Z,3.10
2024-04-08T16:37:04.314Z,3.30
2024-04-08T16:39:31.335Z,4.27
2024-04-08T16:41:58.367Z,3.10
2024-04-08T16:44:25.213Z,3.87
2024-04-08T16:46:52.325Z,4.20
2024-04-08T16:49:19.793Z,3.43
2024-04-08T16:51:47.437Z,4.50
2024-04-08T16:54:14.312Z,3.53
2024-04-08T16:56:41.170Z,3.23
2024-04-08T16:59:08.058Z,3.80
2024-04-08T17:01:35.108Z,4.73
2024-04-08T17:04:04.970Z,4.93
2024-04-08T17:06:39.370Z,3.30
2024-04-08T17:09:06.356Z,4.53
2024-04-08T17:11:33.592Z,4.23
2024-04-08T17:14:00.456Z,4.53
2024-04-08T17:16:28.011Z,5.77
2024-04-08T17:18:54.992Z,5.10
2024-04-08T17:21:22.055Z,4.17
2024-04-08T17:23:49.243Z,4.23
2024-04-08T17:26:16.122Z,5.13
2024-04-08T17:28:42.948Z,3.70
2024-04-08T17:31:09.998Z,5.33
2024-04-08T17:33:38.224Z,4.17
2024-04-08T17:36:06.812Z,4.70
2024-04-08T17:38:43.866Z,4.23
2024-04-08T17:41:13.281Z,4.80
2024-04-08T17:43:41.949Z,5.10
2024-04-08T17:46:09.372Z,4.83
2024-04-08T17:48:37.765Z,4.47
2024-04-08T17:51:07.083Z,4.57
2024-04-08T17:53:37.879Z,4.67
2024-04-08T17:56:12.535Z,4.00
2024-04-08T17:58:39.651Z,4.73
2024-04-08T18:01:10.060Z,4.30
2024-04-08T18:03:37.732Z,4.77
2024-04-08T18:06:11.799Z,4.23
2024-04-08T18:08:43.435Z,4.80
2024-04-08T18:11:12.706Z,4.97
2024-04-08T18:13:40.589Z,5.20
2024-04-08T18:16:13.868Z,4.53
2024-04-08T18:18:52.832Z,5.97
2024-04-08T18:21:21.259Z,6.60
2024-04-08T18:23:49.902Z,4.63
2024-04-08T18:26:19.484Z,5.47
2024-04-08T18:28:54.270Z,5.37
2024-04-08T18:31:21.646Z,5.27
2024-04-08T18:33:50.741Z,5.30
2024-04-08T18:36:18.395Z,5.07
2024-04-08T18:38:45.748Z,5.27
2024-04-08T18:41:15.329Z,5.40
2024-04-08T18:43:43.660Z,6.13
2024-04-08T18:46:24.870Z,6.90
2024-04-08T18:48:52.779Z,6.53
2024-04-08T18:51:20.415Z,6.60
2024-04-08T18:53:50.344Z,6.17
2024-04-08T18:56:18.798Z,6.50
2024-04-08T18:58:46.215Z,6.53
2024-04-08T19:01:21.859Z,6.17
2024-04-08T19:03:50.697Z,6.80
2024-04-08T19:06:17.844Z,7.00
2024-04-08T19:08:44.822Z,5.80
2024-04-08T19:11:11.835Z,7.00
2024-04-08T19:13:38.707Z,6.47
2024-04-08T19:16:05.922Z,6.50
2024-04-08T19:18:34.692Z,6.47
2024-04-08T19:21:09.088Z,6.57
2024-04-08T19:23:37.543Z,6.13
2024-04-08T19:26:04.928Z,6.70
2024-04-08T19:28:32.058Z,6.10
2024-04-08T19:30:58.862Z,5.83
2024-04-08T19:33:26.190Z,5.97
2024-04-08T19:35:55.157Z,6.00
2024-04-08T19:38:23.153Z,5.70
2024-04-08T19:41:03.673Z,5.80
2024-04-08T19:43:30.596Z,4.97
2024-04-08T19:46:06.367Z,6.77
2024-04-08T19:48:40.061Z,5.17
2024-04-08T19:51:16.634Z,5.13
2024-04-08T19:53:46.758Z,6.30
2024-04-08T19:56:15.619Z,4.83
2024-04-08T19:58:43.076Z,5.47
2024-04-08T20:01:10.836Z,5.33
2024-04-08T20:03:38.749Z,6.87
2024-04-08T20:06:06.300Z,7.47
2024-04-08T20:08:37.279Z,6.10
2024-04-08T20:11:08.206Z,6.20
2024-04-08T20:13:35.144Z,6.67
2024-04-08T20:16:16.347Z,5.97
2024-04-08T20:18:44.469Z,5.97
2024-04-08T20:21:14.171Z,5.90
2024-04-08T20:23:41.713Z,5.23
2024-04-08T20:26:08.878Z,6.53
2024-04-08T20:28:35.908Z,7.03
2024-04-08T20:31:06.488Z,5.53
2024-04-08T20:33:33.633Z,5.77
2024-04-08T20:36:06.552Z,5.53
2024-04-08T20:38:34.488Z,7.27
2024-04-08T20:41:02.387Z,6.83
2024-04-08T20:43:30.876Z,7.10
2024-04-08T20:45:57.829Z,7.10
2024-04-08T20:48:24.980Z,5.33
2024-04-08T20:50:58.997Z,6.50
2024-04-08T20:53:26.894Z,6.23
2024-04-08T20:56:05.358Z,5.67
2024-04-08T20:58:33.567Z,6.80
2024-04-08T21:01:11.316Z,10.07
2024-04-08T21:03:39.728Z,7.60
2024-04-08T21:06:09.484Z,7.60
2024-04-08T21:08:39.390Z,8.93
2024-04-08T21:11:08.496Z,9.80
2024-04-08T21:13:36.681Z,10.27
2024-04-08T21:16:07.255Z,9.67
2024-04-08T21:18:35.733Z,8.90
2024-04-08T21:21:06.951Z,9.13
2024-04-08T21:23:35.672Z,8.17
2024-04-08T21:26:06.801Z,7.77
2024-04-08T21:28:33.687Z,7.97
2024-04-08T21:31:00.581Z,7.80
2024-04-08T21:33:27.611Z,8.30
2024-04-08T21:35:58.936Z,7.90
2024-04-08T21:38:26.810Z,7.30
2024-04-08T21:41:15.832Z,7.73
2024-04-08T21:43:45.408Z,7.57
2024-04-08T21:46:13.655Z,7.67
2024-04-08T21:48:42.058Z,7.53
2024-04-08T21:51:15.171Z,7.73
2024-04-08T21:53:42.128Z,6.80
2024-04-08T21:56:09.005Z,6.47
2024-04-08T21:58:37.061Z,6.47
2024-04-08T22:01:09.482Z,7.13
2024-04-08T22:03:37.582Z,6.03
2024-04-08T22:06:06.826Z,5.93
2024-04-08T22:08:33.873Z,6.80
2024-04-08T22:11:00.806Z,5.47
2024-04-08T22:13:27.994Z,6.00
2024-04-08T22:15:54.966Z,6.03
2024-04-08T22:18:24.613Z,6.00
2024-04-08T22:20:52.960Z,6.63
2024-04-08T22:23:20.152Z,6.40
2024-04-08T22:25:47.329Z,5.80
2024-04-08T22:28:14.202Z,4.70
2024-04-08T22:30:41.440Z,5.43
2024-04-08T22:33:08.589Z,5.83
2024-04-08T22:35:35.612Z,6.43
2024-04-08T22:38:02.453Z,6.33
2024-04-08T22:40:29.333Z,7.53
2024-04-08T22:42:56.153Z,5.57
2024-04-08T22:45:23.195Z,6.70
2024-04-08T22:47:50.322Z,5.77
2024-04-08T22:50:18.243Z,5.57
2024-04-08T22:52:45.286Z,7.57
2024-04-08T22:55:12.835Z,5.37
2024-04-08T22:57:44.416Z,6.03
2024-04-08T23:00:12.414Z,7.03
2024-04-08T23:02:39.931Z,6.07
2024-04-08T23:05:07.975Z,6.63
2024-04-08T23:07:35.722Z,6.03
2024-04-08T23:10:03.956Z,6.60
2024-04-08T23:12:31.172Z,5.93
2024-04-08T23:14:58.244Z,5.07
2024-04-08T23:17:25.412Z,6.17
2024-04-08T23:19:53.380Z,8.20
2024-04-08T23:22:20.420Z,6.30
2024-04-08T23:24:47.737Z,5.73
2024-04-08T23:27:14.775Z,5.93
2024-04-08T23:29:41.838Z,7.33
2024-04-08T23:32:09.820Z,5.80
2024-04-08T23:34:37.072Z,6.47
2024-04-08T23:37:04.068Z,6.70
2024-04-08T23:39:31.117Z,7.40
2024-04-08T23:41:58.123Z,6.23
2024-04-08T23:44:25.048Z,6.43
2024-04-08T23:46:52.091Z,5.97
2024-04-08T23:49:19.192Z,5.63
2024-04-08T23:51:46.164Z,5.53
2024-04-08T23:54:13.112Z,5.57
2024-04-08T23:56:39.971Z,6.47
2024-04-08T23:59:06.834Z,6.37
